sensor_id;sensor_type;location;lat;lon;timestamp;P1;durP1;ratioP1;P2;durP2;ratioP2
44197;SDS011;30157;55.512;37.764;2023-05-09T00:01:58;30.85;;;14.23;;
44197;SDS011;30157;55.512;37.764;2023-05-09T00:04:24;31.20;;;13.10;;
44197;SDS011;30157;55.512;37.764;2023-05-09T00:06:50;32.78;;;15.98;;
44197;SDS011;30157;55.512;37.764;2023-05-09T00:09:16;30.67;;;14.57;;
44197;SDS011;30157;55.512;37.764;2023-05-09T00:11:42;29.05;;;14.93;;
44197;SDS011;30157;55.512;37.764;2023-05-09T00:14:08;33.35;;;15.38;;
44197;SDS011;30157;55.512;37.764;2023-05-09T00:16:36;34.15;;;14.70;;
44197;SDS011;30157;55.512;37.764;2023-05-09T00:19:02;30.42;;;12.45;;
44197;SDS011;30157;55.512;37.764;2023-05-09T00:21:28;39.72;;;14.45;;
44197;SDS011;30157;55.512;37.764;2023-05-09T00:23:54;26.95;;;12.50;;
44197;SDS011;30157;55.512;37.764;2023-05-09T00:26:21;28.95;;;13.75;;
44197;SDS011;30157;55.512;37.764;2023-05-09T00:28:47;31.25;;;13.10;;
44197;SDS011;30157;55.512;37.764;2023-05-09T00:31:13;28.30;;;14.13;;
44197;SDS011;30157;55.512;37.764;2023-05-09T00:33:39;31.77;;;15.13;;
44197;SDS011;30157;55.512;37.764;2023-05-09T00:36:05;32.67;;;15.00;;
44197;SDS011;30157;55.512;37.764;2023-05-09T00:38:31;36.28;;;15.60;;
44197;SDS011;30157;55.512;37.764;2023-05-09T00:40:57;31.40;;;14.88;;
44197;SDS011;30157;55.512;37.764;2023-05-09T00:43:23;32.60;;;15.15;;
44197;SDS011;30157;55.512;37.764;2023-05-09T00:45:48;34.03;;;14.82;;
44197;SDS011;30157;55.512;37.764;2023-05-09T00:48:15;35.80;;;16.17;;
44197;SDS011;30157;55.512;37.764;2023-05-09T00:50:41;32.65;;;15.07;;
44197;SDS011;30157;55.512;37.764;2023-05-09T00:53:07;37.00;;;16.45;;
44197;SDS011;30157;55.512;37.764;2023-05-09T00:55:33;30.95;;;15.68;;
44197;SDS011;30157;55.512;37.764;2023-05-09T00:58:00;33.33;;;15.15;;
44197;SDS011;30157;55.512;37.764;2023-05-09T01:00:27;31.23;;;16.20;;
44197;SDS011;30157;55.512;37.764;2023-05-09T01:02:54;35.20;;;18.17;;
44197;SDS011;30157;55.512;37.764;2023-05-09T01:05:21;33.30;;;16.63;;
44197;SDS011;30157;55.512;37.764;2023-05-09T01:08:05;35.70;;;16.08;;
44197;SDS011;30157;55.512;37.764;2023-05-09T01:10:49;36.53;;;16.20;;
44197;SDS011;30157;55.512;37.764;2023-05-09T01:16:23;33.88;;;16.88;;
44197;SDS011;30157;55.512;37.764;2023-05-09T01:21:47;35.30;;;15.70;;
44197;SDS011;30157;55.512;37.764;2023-05-09T01:30:10;35.63;;;16.00;;
44197;SDS011;30157;55.512;37.764;2023-05-09T01:32:38;29.77;;;17.00;;
44197;SDS011;30157;55.512;37.764;2023-05-09T01:35:07;33.88;;;15.95;;
44197;SDS011;30157;55.512;37.764;2023-05-09T01:37:38;35.55;;;16.60;;
44197;SDS011;30157;55.512;37.764;2023-05-09T01:40:09;32.42;;;16.52;;
44197;SDS011;30157;55.512;37.764;2023-05-09T01:45:14;33.40;;;15.93;;
44197;SDS011;30157;55.512;37.764;2023-05-09T01:47:41;30.38;;;16.48;;
44197;SDS011;30157;55.512;37.764;2023-05-09T01:50:09;32.40;;;17.60;;
44197;SDS011;30157;55.512;37.764;2023-05-09T01:52:36;32.22;;;17.25;;
44197;SDS011;30157;55.512;37.764;2023-05-09T01:55:04;45.97;;;18.50;;
44197;SDS011;30157;55.512;37.764;2023-05-09T01:57:31;44.35;;;18.60;;
44197;SDS011;30157;55.512;37.764;2023-05-09T02:00:00;32.25;;;17.08;;
44197;SDS011;30157;55.512;37.764;2023-05-09T02:02:30;33.78;;;18.88;;
44197;SDS011;30157;55.512;37.764;2023-05-09T02:04:57;34.50;;;18.05;;
44197;SDS011;30157;55.512;37.764;2023-05-09T02:07:23;40.50;;;18.25;;
44197;SDS011;30157;55.512;37.764;2023-05-09T02:09:53;31.75;;;17.48;;
44197;SDS011;30157;55.512;37.764;2023-05-09T02:12:22;39.97;;;18.95;;
44197;SDS011;30157;55.512;37.764;2023-05-09T02:14:48;33.45;;;18.90;;
44197;SDS011;30157;55.512;37.764;2023-05-09T02:17:15;39.53;;;17.85;;
44197;SDS011;30157;55.512;37.764;2023-05-09T02:19:42;36.25;;;17.45;;
44197;SDS011;30157;55.512;37.764;2023-05-09T02:22:28;34.10;;;18.15;;
44197;SDS011;30157;55.512;37.764;2023-05-09T02:24:53;36.45;;;17.92;;
44197;SDS011;30157;55.512;37.764;2023-05-09T02:27:19;33.22;;;17.13;;
44197;SDS011;30157;55.512;37.764;2023-05-09T02:29:49;30.85;;;17.77;;
44197;SDS011;30157;55.512;37.764;2023-05-09T02:32:19;30.05;;;17.50;;
44197;SDS011;30157;55.512;37.764;2023-05-09T02:34:51;32.10;;;17.38;;
44197;SDS011;30157;55.512;37.764;2023-05-09T02:37:18;33.92;;;17.95;;
44197;SDS011;30157;55.512;37.764;2023-05-09T02:39:45;38.05;;;18.23;;
44197;SDS011;30157;55.512;37.764;2023-05-09T02:42:12;33.67;;;18.20;;
44197;SDS011;30157;55.512;37.764;2023-05-09T02:44:40;34.22;;;18.40;;
44197;SDS011;30157;55.512;37.764;2023-05-09T02:47:05;30.70;;;17.95;;
44197;SDS011;30157;55.512;37.764;2023-05-09T02:49:32;31.80;;;18.20;;
44197;SDS011;30157;55.512;37.764;2023-05-09T02:52:01;35.38;;;18.08;;
44197;SDS011;30157;55.512;37.764;2023-05-09T02:54:27;33.30;;;17.95;;
44197;SDS011;30157;55.512;37.764;2023-05-09T02:56:53;34.83;;;18.02;;
44197;SDS011;30157;55.512;37.764;2023-05-09T02:59:18;38.38;;;17.80;;
44197;SDS011;30157;55.512;37.764;2023-05-09T03:01:45;33.33;;;17.67;;
44197;SDS011;30157;55.512;37.764;2023-05-09T03:04:11;30.02;;;16.60;;
44197;SDS011;30157;55.512;37.764;2023-05-09T03:06:37;33.35;;;17.10;;
44197;SDS011;30157;55.512;37.764;2023-05-09T03:09:03;31.92;;;17.30;;
44197;SDS011;30157;55.512;37.764;2023-05-09T03:11:30;29.58;;;17.10;;
44197;SDS011;30157;55.512;37.764;2023-05-09T03:13:56;33.97;;;16.70;;
44197;SDS011;30157;55.512;37.764;2023-05-09T03:16:22;34.55;;;16.50;;
44197;SDS011;30157;55.512;37.764;2023-05-09T03:18:48;28.60;;;17.10;;
44197;SDS011;30157;55.512;37.764;2023-05-09T03:21:14;34.97;;;17.25;;
44197;SDS011;30157;55.512;37.764;2023-05-09T03:23:40;28.00;;;15.63;;
44197;SDS011;30157;55.512;37.764;2023-05-09T03:26:05;29.30;;;16.77;;
44197;SDS011;30157;55.512;37.764;2023-05-09T03:28:31;28.70;;;16.10;;
44197;SDS011;30157;55.512;37.764;2023-05-09T03:31:01;28.27;;;16.13;;
44197;SDS011;30157;55.512;37.764;2023-05-09T03:33:28;25.35;;;15.70;;
44197;SDS011;30157;55.512;37.764;2023-05-09T03:35:54;27.75;;;15.13;;
44197;SDS011;30157;55.512;37.764;2023-05-09T03:38:20;31.00;;;16.38;;
44197;SDS011;30157;55.512;37.764;2023-05-09T03:40:49;26.88;;;15.35;;
44197;SDS011;30157;55.512;37.764;2023-05-09T03:43:16;27.10;;;15.57;;
44197;SDS011;30157;55.512;37.764;2023-05-09T03:45:42;28.48;;;15.80;;
44197;SDS011;30157;55.512;37.764;2023-05-09T03:48:09;29.50;;;16.02;;
44197;SDS011;30157;55.512;37.764;2023-05-09T03:50:41;32.60;;;16.70;;
44197;SDS011;30157;55.512;37.764;2023-05-09T03:53:07;31.98;;;15.48;;
44197;SDS011;30157;55.512;37.764;2023-05-09T03:55:35;27.92;;;14.98;;
44197;SDS011;30157;55.512;37.764;2023-05-09T03:58:00;30.27;;;15.70;;
44197;SDS011;30157;55.512;37.764;2023-05-09T04:00:27;29.75;;;16.38;;
44197;SDS011;30157;55.512;37.764;2023-05-09T04:03:02;31.57;;;16.10;;
44197;SDS011;30157;55.512;37.764;2023-05-09T04:05:34;23.65;;;13.80;;
44197;SDS011;30157;55.512;37.764;2023-05-09T04:08:02;23.45;;;14.45;;
44197;SDS011;30157;55.512;37.764;2023-05-09T04:10:29;24.02;;;13.90;;
44197;SDS011;30157;55.512;37.764;2023-05-09T04:12:56;23.85;;;13.52;;
44197;SDS011;30157;55.512;37.764;2023-05-09T04:15:22;20.52;;;12.70;;
44197;SDS011;30157;55.512;37.764;2023-05-09T04:17:47;23.10;;;13.57;;
44197;SDS011;30157;55.512;37.764;2023-05-09T04:20:13;26.77;;;14.55;;
44197;SDS011;30157;55.512;37.764;2023-05-09T04:22:41;26.45;;;14.10;;
44197;SDS011;30157;55.512;37.764;2023-05-09T04:25:07;23.13;;;12.85;;
44197;SDS011;30157;55.512;37.764;2023-05-09T04:27:36;23.70;;;13.82;;
44197;SDS011;30157;55.512;37.764;2023-05-09T04:30:03;21.02;;;13.02;;
44197;SDS011;30157;55.512;37.764;2023-05-09T04:32:31;24.25;;;14.15;;
44197;SDS011;30157;55.512;37.764;2023-05-09T04:34:57;24.10;;;13.80;;
44197;SDS011;30157;55.512;37.764;2023-05-09T04:37:28;24.58;;;14.80;;
44197;SDS011;30157;55.512;37.764;2023-05-09T04:39:56;29.23;;;15.77;;
44197;SDS011;30157;55.512;37.764;2023-05-09T04:42:29;27.38;;;14.95;;
44197;SDS011;30157;55.512;37.764;2023-05-09T04:44:58;21.88;;;13.98;;
44197;SDS011;30157;55.512;37.764;2023-05-09T04:47:24;25.35;;;14.63;;
44197;SDS011;30157;55.512;37.764;2023-05-09T04:49:50;29.75;;;14.75;;
44197;SDS011;30157;55.512;37.764;2023-05-09T04:52:16;24.85;;;16.30;;
44197;SDS011;30157;55.512;37.764;2023-05-09T04:54:42;32.33;;;17.67;;
44197;SDS011;30157;55.512;37.764;2023-05-09T04:57:08;29.20;;;16.08;;
44197;SDS011;30157;55.512;37.764;2023-05-09T04:59:34;30.75;;;18.15;;
44197;SDS011;30157;55.512;37.764;2023-05-09T05:02:01;29.98;;;17.33;;
44197;SDS011;30157;55.512;37.764;2023-05-09T05:04:27;23.27;;;15.73;;
44197;SDS011;30157;55.512;37.764;2023-05-09T05:06:53;26.00;;;15.93;;
44197;SDS011;30157;55.512;37.764;2023-05-09T05:09:19;31.33;;;17.65;;
44197;SDS011;30157;55.512;37.764;2023-05-09T05:11:45;27.73;;;16.48;;
44197;SDS011;30157;55.512;37.764;2023-05-09T05:14:12;27.25;;;15.90;;
44197;SDS011;30157;55.512;37.764;2023-05-09T05:16:38;23.45;;;14.65;;
44197;SDS011;30157;55.512;37.764;2023-05-09T05:19:04;22.15;;;13.75;;
44197;SDS011;30157;55.512;37.764;2023-05-09T05:21:34;27.38;;;15.10;;
44197;SDS011;30157;55.512;37.764;2023-05-09T05:23:59;21.80;;;13.93;;
44197;SDS011;30157;55.512;37.764;2023-05-09T05:26:25;21.88;;;13.07;;
44197;SDS011;30157;55.512;37.764;2023-05-09T05:28:52;25.58;;;13.93;;
44197;SDS011;30157;55.512;37.764;2023-05-09T05:31:20;19.52;;;12.90;;
44197;SDS011;30157;55.512;37.764;2023-05-09T05:33:46;20.42;;;12.93;;
44197;SDS011;30157;55.512;37.764;2023-05-09T05:36:12;21.83;;;13.93;;
44197;SDS011;30157;55.512;37.764;2023-05-09T05:38:38;18.88;;;12.32;;
44197;SDS011;30157;55.512;37.764;2023-05-09T05:41:04;21.70;;;12.93;;
44197;SDS011;30157;55.512;37.764;2023-05-09T05:43:30;18.25;;;11.70;;
44197;SDS011;30157;55.512;37.764;2023-05-09T05:45:56;17.83;;;11.13;;
44197;SDS011;30157;55.512;37.764;2023-05-09T05:48:23;16.73;;;11.00;;
44197;SDS011;30157;55.512;37.764;2023-05-09T05:50:51;16.65;;;10.25;;
44197;SDS011;30157;55.512;37.764;2023-05-09T05:53:20;18.52;;;10.77;;
44197;SDS011;30157;55.512;37.764;2023-05-09T05:55:48;17.10;;;10.00;;
44197;SDS011;30157;55.512;37.764;2023-05-09T05:58:14;13.60;;;9.07;;
44197;SDS011;30157;55.512;37.764;2023-05-09T06:00:40;12.20;;;7.97;;
44197;SDS011;30157;55.512;37.764;2023-05-09T06:03:07;9.63;;;6.78;;
44197;SDS011;30157;55.512;37.764;2023-05-09T06:05:48;8.68;;;6.03;;
44197;SDS011;30157;55.512;37.764;2023-05-09T06:08:14;8.00;;;5.55;;
44197;SDS011;30157;55.512;37.764;2023-05-09T06:10:40;10.20;;;5.63;;
44197;SDS011;30157;55.512;37.764;2023-05-09T06:13:06;11.88;;;6.28;;
44197;SDS011;30157;55.512;37.764;2023-05-09T06:15:33;7.75;;;5.10;;
44197;SDS011;30157;55.512;37.764;2023-05-09T06:17:59;3.08;;;2.20;;
44197;SDS011;30157;55.512;37.764;2023-05-09T06:20:26;2.08;;;1.30;;
44197;SDS011;30157;55.512;37.764;2023-05-09T06:22:52;2.53;;;1.30;;
44197;SDS011;30157;55.512;37.764;2023-05-09T06:25:18;3.85;;;1.90;;
44197;SDS011;30157;55.512;37.764;2023-05-09T06:27:44;9.77;;;6.32;;
44197;SDS011;30157;55.512;37.764;2023-05-09T06:30:10;4.57;;;3.20;;
44197;SDS011;30157;55.512;37.764;2023-05-09T06:32:36;5.82;;;2.63;;
44197;SDS011;30157;55.512;37.764;2023-05-09T06:35:02;3.78;;;2.28;;
44197;SDS011;30157;55.512;37.764;2023-05-09T06:37:33;1.48;;;1.00;;
44197;SDS011;30157;55.512;37.764;2023-05-09T06:39:59;1.42;;;1.10;;
44197;SDS011;30157;55.512;37.764;2023-05-09T06:42:24;1.75;;;1.35;;
44197;SDS011;30157;55.512;37.764;2023-05-09T06:44:50;2.78;;;1.60;;
44197;SDS011;30157;55.512;37.764;2023-05-09T06:47:16;2.70;;;1.77;;
44197;SDS011;30157;55.512;37.764;2023-05-09T06:49:42;3.15;;;1.80;;
44197;SDS011;30157;55.512;37.764;2023-05-09T06:52:07;3.17;;;1.80;;
44197;SDS011;30157;55.512;37.764;2023-05-09T06:54:33;3.08;;;1.63;;
44197;SDS011;30157;55.512;37.764;2023-05-09T06:56:59;3.22;;;1.90;;
44197;SDS011;30157;55.512;37.764;2023-05-09T06:59:25;3.25;;;1.80;;
44197;SDS011;30157;55.512;37.764;2023-05-09T07:01:51;3.03;;;2.00;;
44197;SDS011;30157;55.512;37.764;2023-05-09T07:04:17;2.88;;;1.90;;
44197;SDS011;30157;55.512;37.764;2023-05-09T07:06:42;2.72;;;1.60;;
44197;SDS011;30157;55.512;37.764;2023-05-09T07:09:09;2.33;;;1.35;;
44197;SDS011;30157;55.512;37.764;2023-05-09T07:11:35;3.75;;;1.40;;
44197;SDS011;30157;55.512;37.764;2023-05-09T07:14:02;2.42;;;1.77;;
44197;SDS011;30157;55.512;37.764;2023-05-09T07:16:28;4.10;;;2.13;;
44197;SDS011;30157;55.512;37.764;2023-05-09T07:18:54;2.40;;;1.70;;
44197;SDS011;30157;55.512;37.764;2023-05-09T07:21:20;2.78;;;1.67;;
44197;SDS011;30157;55.512;37.764;2023-05-09T07:23:46;3.03;;;1.70;;
44197;SDS011;30157;55.512;37.764;2023-05-09T07:26:12;5.25;;;2.40;;
44197;SDS011;30157;55.512;37.764;2023-05-09T07:28:38;4.35;;;2.28;;
44197;SDS011;30157;55.512;37.764;2023-05-09T07:31:04;4.60;;;2.20;;
44197;SDS011;30157;55.512;37.764;2023-05-09T07:33:30;9.30;;;3.50;;
44197;SDS011;30157;55.512;37.764;2023-05-09T07:35:59;6.10;;;3.58;;
44197;SDS011;30157;55.512;37.764;2023-05-09T07:38:25;3.83;;;2.38;;
44197;SDS011;30157;55.512;37.764;2023-05-09T07:40:51;5.65;;;2.80;;
44197;SDS011;30157;55.512;37.764;2023-05-09T07:43:17;5.57;;;2.38;;
44197;SDS011;30157;55.512;37.764;2023-05-09T07:45:43;4.10;;;2.67;;
44197;SDS011;30157;55.512;37.764;2023-05-09T07:48:10;6.30;;;2.50;;
44197;SDS011;30157;55.512;37.764;2023-05-09T07:50:36;3.22;;;2.13;;
44197;SDS011;30157;55.512;37.764;2023-05-09T07:53:02;2.75;;;2.10;;
44197;SDS011;30157;55.512;37.764;2023-05-09T07:55:28;2.53;;;1.50;;
44197;SDS011;30157;55.512;37.764;2023-05-09T07:57:53;3.72;;;2.00;;
44197;SDS011;30157;55.512;37.764;2023-05-09T08:00:19;3.88;;;2.15;;
44197;SDS011;30157;55.512;37.764;2023-05-09T08:02:51;4.20;;;2.28;;
44197;SDS011;30157;55.512;37.764;2023-05-09T08:05:18;5.55;;;2.70;;
44197;SDS011;30157;55.512;37.764;2023-05-09T08:07:44;4.72;;;2.97;;
44197;SDS011;30157;55.512;37.764;2023-05-09T08:10:10;6.80;;;3.45;;
44197;SDS011;30157;55.512;37.764;2023-05-09T08:12:36;6.32;;;3.38;;
44197;SDS011;30157;55.512;37.764;2023-05-09T08:15:02;5.20;;;2.65;;
44197;SDS011;30157;55.512;37.764;2023-05-09T08:17:32;3.83;;;2.45;;
44197;SDS011;30157;55.512;37.764;2023-05-09T08:20:01;4.95;;;2.83;;
44197;SDS011;30157;55.512;37.764;2023-05-09T08:22:31;4.25;;;2.70;;
44197;SDS011;30157;55.512;37.764;2023-05-09T08:24:57;3.75;;;2.65;;
44197;SDS011;30157;55.512;37.764;2023-05-09T08:27:23;4.45;;;2.97;;
44197;SDS011;30157;55.512;37.764;2023-05-09T08:29:49;4.00;;;2.60;;
44197;SDS011;30157;55.512;37.764;2023-05-09T08:32:15;4.70;;;3.55;;
44197;SDS011;30157;55.512;37.764;2023-05-09T08:34:40;4.10;;;2.60;;
44197;SDS011;30157;55.512;37.764;2023-05-09T08:37:06;4.65;;;2.95;;
44197;SDS011;30157;55.512;37.764;2023-05-09T08:39:32;4.07;;;2.70;;
44197;SDS011;30157;55.512;37.764;2023-05-09T08:41:59;4.38;;;2.97;;
44197;SDS011;30157;55.512;37.764;2023-05-09T08:44:27;5.75;;;2.72;;
44197;SDS011;30157;55.512;37.764;2023-05-09T08:46:55;4.50;;;2.55;;
44197;SDS011;30157;55.512;37.764;2023-05-09T08:49:24;6.65;;;2.67;;
44197;SDS011;30157;55.512;37.764;2023-05-09T08:51:51;3.58;;;2.25;;
44197;SDS011;30157;55.512;37.764;2023-05-09T08:54:17;6.45;;;2.63;;
44197;SDS011;30157;55.512;37.764;2023-05-09T08:56:43;3.83;;;2.25;;
44197;SDS011;30157;55.512;37.764;2023-05-09T08:59:10;3.67;;;2.20;;
44197;SDS011;30157;55.512;37.764;2023-05-09T09:01:36;5.57;;;2.75;;
44197;SDS011;30157;55.512;37.764;2023-05-09T09:04:04;4.35;;;2.50;;
44197;SDS011;30157;55.512;37.764;2023-05-09T09:06:32;4.82;;;2.60;;
44197;SDS011;30157;55.512;37.764;2023-05-09T09:08:58;3.88;;;2.58;;
44197;SDS011;30157;55.512;37.764;2023-05-09T09:11:25;4.07;;;2.50;;
44197;SDS011;30157;55.512;37.764;2023-05-09T09:13:53;4.43;;;2.88;;
44197;SDS011;30157;55.512;37.764;2023-05-09T09:16:23;3.58;;;2.35;;
44197;SDS011;30157;55.512;37.764;2023-05-09T09:18:52;3.10;;;2.30;;
44197;SDS011;30157;55.512;37.764;2023-05-09T09:21:19;4.20;;;2.50;;
44197;SDS011;30157;55.512;37.764;2023-05-09T09:23:45;3.47;;;2.28;;
44197;SDS011;30157;55.512;37.764;2023-05-09T09:26:13;3.83;;;2.53;;
44197;SDS011;30157;55.512;37.764;2023-05-09T09:28:38;4.47;;;2.70;;
44197;SDS011;30157;55.512;37.764;2023-05-09T09:33:49;3.97;;;2.50;;
44197;SDS011;30157;55.512;37.764;2023-05-09T09:36:25;7.18;;;3.08;;
44197;SDS011;30157;55.512;37.764;2023-05-09T09:38:55;5.72;;;2.65;;
44197;SDS011;30157;55.512;37.764;2023-05-09T09:41:28;4.15;;;2.70;;
44197;SDS011;30157;55.512;37.764;2023-05-09T09:43:57;3.85;;;2.90;;
44197;SDS011;30157;55.512;37.764;2023-05-09T09:46:23;3.33;;;2.47;;
44197;SDS011;30157;55.512;37.764;2023-05-09T09:48:49;4.10;;;2.50;;
44197;SDS011;30157;55.512;37.764;2023-05-09T09:51:19;5.82;;;2.45;;
44197;SDS011;30157;55.512;37.764;2023-05-09T09:53:46;4.35;;;2.42;;
44197;SDS011;30157;55.512;37.764;2023-05-09T09:56:13;2.20;;;1.70;;
44197;SDS011;30157;55.512;37.764;2023-05-09T09:58:38;2.22;;;1.77;;
44197;SDS011;30157;55.512;37.764;2023-05-09T10:01:08;3.13;;;2.03;;
44197;SDS011;30157;55.512;37.764;2023-05-09T10:03:44;3.80;;;2.50;;
44197;SDS011;30157;55.512;37.764;2023-05-09T10:06:11;3.17;;;2.20;;
44197;SDS011;30157;55.512;37.764;2023-05-09T10:08:39;4.15;;;2.50;;
44197;SDS011;30157;55.512;37.764;2023-05-09T10:11:06;5.22;;;2.78;;
44197;SDS011;30157;55.512;37.764;2023-05-09T10:13:33;4.57;;;2.42;;
44197;SDS011;30157;55.512;37.764;2023-05-09T10:16:00;3.10;;;1.92;;
44197;SDS011;30157;55.512;37.764;2023-05-09T10:18:28;2.60;;;1.92;;
44197;SDS011;30157;55.512;37.764;2023-05-09T10:20:56;4.15;;;2.15;;
44197;SDS011;30157;55.512;37.764;2023-05-09T10:23:29;2.80;;;2.33;;
44197;SDS011;30157;55.512;37.764;2023-05-09T10:25:58;3.53;;;2.10;;
44197;SDS011;30157;55.512;37.764;2023-05-09T10:28:31;3.77;;;2.30;;
44197;SDS011;30157;55.512;37.764;2023-05-09T10:31:32;2.60;;;1.80;;
44197;SDS011;30157;55.512;37.764;2023-05-09T10:33:52;4.75;;;2.25;;
44197;SDS011;30157;55.512;37.764;2023-05-09T10:36:20;2.30;;;1.80;;
44197;SDS011;30157;55.512;37.764;2023-05-09T10:38:49;3.78;;;2.10;;
44197;SDS011;30157;55.512;37.764;2023-05-09T10:41:16;2.97;;;1.80;;
44197;SDS011;30157;55.512;37.764;2023-05-09T10:43:43;3.10;;;2.40;;
44197;SDS011;30157;55.512;37.764;2023-05-09T10:46:10;2.85;;;1.92;;
44197;SDS011;30157;55.512;37.764;2023-05-09T10:48:39;3.00;;;1.88;;
44197;SDS011;30157;55.512;37.764;2023-05-09T10:51:06;5.22;;;2.17;;
44197;SDS011;30157;55.512;37.764;2023-05-09T10:53:46;3.05;;;2.22;;
44197;SDS011;30157;55.512;37.764;2023-05-09T10:58:56;3.35;;;2.00;;
44197;SDS011;30157;55.512;37.764;2023-05-09T11:01:29;3.97;;;1.92;;
44197;SDS011;30157;55.512;37.764;2023-05-09T11:03:58;2.80;;;1.88;;
44197;SDS011;30157;55.512;37.764;2023-05-09T11:09:22;3.20;;;2.10;;
44197;SDS011;30157;55.512;37.764;2023-05-09T11:12:00;3.15;;;1.90;;
44197;SDS011;30157;55.512;37.764;2023-05-09T11:14:32;2.53;;;1.95;;
44197;SDS011;30157;55.512;37.764;2023-05-09T11:17:12;2.47;;;1.70;;
44197;SDS011;30157;55.512;37.764;2023-05-09T11:22:22;3.33;;;2.13;;
44197;SDS011;30157;55.512;37.764;2023-05-09T11:24:51;5.15;;;2.05;;
44197;SDS011;30157;55.512;37.764;2023-05-09T11:27:25;4.03;;;2.28;;
44197;SDS011;30157;55.512;37.764;2023-05-09T11:29:54;3.45;;;2.05;;
44197;SDS011;30157;55.512;37.764;2023-05-09T11:32:28;3.38;;;2.15;;
44197;SDS011;30157;55.512;37.764;2023-05-09T11:35:06;2.83;;;2.08;;
44197;SDS011;30157;55.512;37.764;2023-05-09T11:40:33;3.08;;;2.10;;
44197;SDS011;30157;55.512;37.764;2023-05-09T11:43:00;3.30;;;2.60;;
44197;SDS011;30157;55.512;37.764;2023-05-09T11:45:30;5.00;;;2.50;;
44197;SDS011;30157;55.512;37.764;2023-05-09T11:47:57;4.15;;;2.75;;
44197;SDS011;30157;55.512;37.764;2023-05-09T11:50:23;4.95;;;2.88;;
44197;SDS011;30157;55.512;37.764;2023-05-09T11:52:49;3.70;;;2.88;;
44197;SDS011;30157;55.512;37.764;2023-05-09T11:55:16;4.28;;;2.70;;
44197;SDS011;30157;55.512;37.764;2023-05-09T11:57:44;3.95;;;2.67;;
44197;SDS011;30157;55.512;37.764;2023-05-09T12:00:16;4.38;;;2.40;;
44197;SDS011;30157;55.512;37.764;2023-05-09T12:02:44;3.97;;;2.80;;
44197;SDS011;30157;55.512;37.764;2023-05-09T12:05:11;3.67;;;2.55;;
44197;SDS011;30157;55.512;37.764;2023-05-09T12:07:39;4.38;;;2.83;;
44197;SDS011;30157;55.512;37.764;2023-05-09T12:10:06;2.85;;;2.28;;
44197;SDS011;30157;55.512;37.764;2023-05-09T12:12:45;4.15;;;2.67;;
44197;SDS011;30157;55.512;37.764;2023-05-09T12:15:13;6.03;;;2.78;;
44197;SDS011;30157;55.512;37.764;2023-05-09T12:17:40;3.92;;;2.45;;
44197;SDS011;30157;55.512;37.764;2023-05-09T12:20:09;3.08;;;2.20;;
44197;SDS011;30157;55.512;37.764;2023-05-09T12:22:35;4.43;;;2.45;;
44197;SDS011;30157;55.512;37.764;2023-05-09T12:25:05;3.05;;;2.10;;
44197;SDS011;30157;55.512;37.764;2023-05-09T12:27:35;2.42;;;1.90;;
44197;SDS011;30157;55.512;37.764;2023-05-09T12:30:03;3.45;;;2.22;;
44197;SDS011;30157;55.512;37.764;2023-05-09T12:32:35;3.30;;;2.15;;
44197;SDS011;30157;55.512;37.764;2023-05-09T12:35:05;3.35;;;2.05;;
44197;SDS011;30157;55.512;37.764;2023-05-09T12:37:33;3.47;;;2.50;;
44197;SDS011;30157;55.512;37.764;2023-05-09T12:42:26;3.25;;;2.30;;
44197;SDS011;30157;55.512;37.764;2023-05-09T12:44:53;4.03;;;2.65;;
44197;SDS011;30157;55.512;37.764;2023-05-09T12:47:19;5.55;;;2.70;;
44197;SDS011;30157;55.512;37.764;2023-05-09T12:49:48;4.20;;;2.60;;
44197;SDS011;30157;55.512;37.764;2023-05-09T12:52:17;2.65;;;2.10;;
44197;SDS011;30157;55.512;37.764;2023-05-09T12:54:47;3.45;;;2.40;;
44197;SDS011;30157;55.512;37.764;2023-05-09T12:57:20;3.25;;;2.10;;
44197;SDS011;30157;55.512;37.764;2023-05-09T12:59:47;3.80;;;2.35;;
44197;SDS011;30157;55.512;37.764;2023-05-09T13:02:13;2.92;;;2.30;;
44197;SDS011;30157;55.512;37.764;2023-05-09T13:04:39;3.63;;;2.03;;
44197;SDS011;30157;55.512;37.764;2023-05-09T13:07:08;3.20;;;2.30;;
44197;SDS011;30157;55.512;37.764;2023-05-09T13:09:35;3.25;;;2.22;;
44197;SDS011;30157;55.512;37.764;2023-05-09T13:12:01;2.45;;;1.85;;
44197;SDS011;30157;55.512;37.764;2023-05-09T13:14:28;4.05;;;2.20;;
44197;SDS011;30157;55.512;37.764;2023-05-09T13:16:57;3.17;;;2.28;;
44197;SDS011;30157;55.512;37.764;2023-05-09T13:19:23;3.65;;;2.40;;
44197;SDS011;30157;55.512;37.764;2023-05-09T13:21:49;3.08;;;2.30;;
44197;SDS011;30157;55.512;37.764;2023-05-09T13:24:15;3.55;;;2.60;;
44197;SDS011;30157;55.512;37.764;2023-05-09T13:26:40;2.67;;;2.10;;
44197;SDS011;30157;55.512;37.764;2023-05-09T13:29:06;3.20;;;2.30;;
44197;SDS011;30157;55.512;37.764;2023-05-09T13:31:32;4.28;;;2.17;;
44197;SDS011;30157;55.512;37.764;2023-05-09T13:33:58;4.40;;;2.50;;
44197;SDS011;30157;55.512;37.764;2023-05-09T13:36:24;3.00;;;2.20;;
44197;SDS011;30157;55.512;37.764;2023-05-09T13:38:50;2.95;;;2.00;;
44197;SDS011;30157;55.512;37.764;2023-05-09T13:41:15;2.88;;;2.20;;
44197;SDS011;30157;55.512;37.764;2023-05-09T13:43:45;4.53;;;2.67;;
44197;SDS011;30157;55.512;37.764;2023-05-09T13:46:11;3.38;;;2.30;;
44197;SDS011;30157;55.512;37.764;2023-05-09T13:48:37;6.13;;;3.35;;
44197;SDS011;30157;55.512;37.764;2023-05-09T13:51:03;5.63;;;3.05;;
44197;SDS011;30157;55.512;37.764;2023-05-09T13:53:31;8.77;;;5.45;;
44197;SDS011;30157;55.512;37.764;2023-05-09T13:55:58;8.20;;;3.10;;
44197;SDS011;30157;55.512;37.764;2023-05-09T13:58:23;6.00;;;3.85;;
44197;SDS011;30157;55.512;37.764;2023-05-09T14:00:49;6.82;;;3.50;;
44197;SDS011;30157;55.512;37.764;2023-05-09T14:03:16;5.90;;;3.78;;
44197;SDS011;30157;55.512;37.764;2023-05-09T14:05:41;6.07;;;4.05;;
44197;SDS011;30157;55.512;37.764;2023-05-09T14:08:07;5.47;;;3.70;;
44197;SDS011;30157;55.512;37.764;2023-05-09T14:10:34;4.68;;;3.60;;
44197;SDS011;30157;55.512;37.764;2023-05-09T14:13:00;5.38;;;3.47;;
44197;SDS011;30157;55.512;37.764;2023-05-09T14:15:26;7.15;;;4.35;;
44197;SDS011;30157;55.512;37.764;2023-05-09T14:17:51;6.88;;;4.35;;
44197;SDS011;30157;55.512;37.764;2023-05-09T14:20:17;5.72;;;4.03;;
44197;SDS011;30157;55.512;37.764;2023-05-09T14:22:43;6.38;;;3.50;;
44197;SDS011;30157;55.512;37.764;2023-05-09T14:25:09;3.97;;;2.72;;
44197;SDS011;30157;55.512;37.764;2023-05-09T14:27:34;5.13;;;2.92;;
44197;SDS011;30157;55.512;37.764;2023-05-09T14:30:02;6.28;;;3.28;;
44197;SDS011;30157;55.512;37.764;2023-05-09T14:32:30;3.97;;;2.65;;
44197;SDS011;30157;55.512;37.764;2023-05-09T14:34:56;4.75;;;2.90;;
44197;SDS011;30157;55.512;37.764;2023-05-09T14:37:21;3.60;;;2.80;;
44197;SDS011;30157;55.512;37.764;2023-05-09T14:39:47;6.00;;;4.10;;
44197;SDS011;30157;55.512;37.764;2023-05-09T14:42:14;6.53;;;3.38;;
44197;SDS011;30157;55.512;37.764;2023-05-09T14:44:41;5.57;;;3.70;;
44197;SDS011;30157;55.512;37.764;2023-05-09T14:47:07;6.28;;;3.25;;
44197;SDS011;30157;55.512;37.764;2023-05-09T14:49:33;6.97;;;3.45;;
44197;SDS011;30157;55.512;37.764;2023-05-09T14:51:59;5.55;;;3.20;;
44197;SDS011;30157;55.512;37.764;2023-05-09T14:54:25;3.30;;;2.28;;
44197;SDS011;30157;55.512;37.764;2023-05-09T14:56:51;4.15;;;2.42;;